createdAt,value
2019-05-28T00:01:06.281Z,2.67
2019-05-28T00:03:40.398Z,2.83
2019-05-28T00:06:13.039Z,2.47
2019-05-28T00:08:44.609Z,2.43
2019-05-28T00:11:16.998Z,2.70
2019-05-28T00:13:50.984Z,2.60
2019-05-28T00:16:22.412Z,2.70
2019-05-28T00:18:56.446Z,2.50
2019-05-28T00:21:28.883Z,2.20
2019-05-28T00:24:01.576Z,2.60
2019-05-28T00:26:36.057Z,2.83
2019-05-28T00:29:10.320Z,2.90
2019-05-28T00:31:43.005Z,3.37
2019-05-28T00:34:15.453Z,3.20
2019-05-28T00:36:48.829Z,3.50
2019-05-28T00:39:22.901Z,3.40
2019-05-28T00:41:54.661Z,3.20
2019-05-28T00:44:26.521Z,3.10
2019-05-28T00:46:58.030Z,3.30
2019-05-28T00:49:30.669Z,3.23
2019-05-28T00:52:02.547Z,3.47
2019-05-28T00:54:35.981Z,3.53
2019-05-28T00:57:09.465Z,3.30
2019-05-28T00:59:42.414Z,3.47
2019-05-28T01:02:14.316Z,3.57
2019-05-28T01:04:47.185Z,3.57
2019-05-28T01:07:19.146Z,2.97
2019-05-28T01:09:52.011Z,3.27
2019-05-28T01:12:24.723Z,3.47
2019-05-28T01:14:56.666Z,3.20
2019-05-28T01:17:28.350Z,3.30
2019-05-28T01:19:59.725Z,3.87
2019-05-28T01:22:31.556Z,3.10
2019-05-28T01:25:03.513Z,3.53
2019-05-28T01:27:36.013Z,3.13
2019-05-28T01:30:07.468Z,3.60
2019-05-28T01:32:44.013Z,3.50
2019-05-28T01:35:17.238Z,3.50
2019-05-28T01:37:48.609Z,3.67
2019-05-28T01:40:23.174Z,2.67
2019-05-28T01:42:55.459Z,2.87
2019-05-28T01:45:28.127Z,3.53
2019-05-28T01:48:00.629Z,3.27
2019-05-28T01:50:34.768Z,3.70
2019-05-28T01:53:07.468Z,3.67
2019-05-28T01:55:40.188Z,3.60
2019-05-28T01:58:12.938Z,3.63
2019-05-28T02:00:47.310Z,3.40
2019-05-28T02:03:19.638Z,2.93
2019-05-28T02:05:51.361Z,3.40
2019-05-28T02:08:22.422Z,3.47
2019-05-28T02:10:54.986Z,3.30
2019-05-28T02:13:27.706Z,3.10
2019-05-28T02:16:00.230Z,3.30
2019-05-28T02:18:32.547Z,3.43
2019-05-28T02:21:06.761Z,3.53
2019-05-28T02:23:39.394Z,3.10
2019-05-28T02:26:11.241Z,3.73
2019-05-28T02:28:43.187Z,4.00
2019-05-28T02:31:27.392Z,3.20
2019-05-28T02:33:50.065Z,3.37
2019-05-28T02:36:22.497Z,3.47
2019-05-28T02:38:55.150Z,3.70
2019-05-28T02:41:28.119Z,3.47
2019-05-28T02:44:02.281Z,3.40
2019-05-28T02:46:36.335Z,3.30
2019-05-28T02:49:09.222Z,3.20
2019-05-28T02:51:41.890Z,3.60
2019-05-28T02:54:14.422Z,3.53
2019-05-28T02:56:47.386Z,3.50
2019-05-28T02:59:18.768Z,4.80
2019-05-28T03:01:52.257Z,3.33
2019-05-28T03:04:25.427Z,3.43
2019-05-28T03:07:00.217Z,3.43
2019-05-28T03:09:33.995Z,3.53
2019-05-28T03:12:08.018Z,3.60
2019-05-28T03:14:39.502Z,3.00
2019-05-28T03:17:12.569Z,3.70
2019-05-28T03:19:47.825Z,3.97
2019-05-28T03:22:22.041Z,3.70
2019-05-28T03:24:53.442Z,3.87
2019-05-28T03:27:25.778Z,4.43
2019-05-28T03:29:57.686Z,3.30
2019-05-28T03:32:29.762Z,3.57
2019-05-28T03:35:01.197Z,3.87
2019-05-28T03:37:35.581Z,3.90
2019-05-28T03:40:09.846Z,3.70
2019-05-28T03:42:42.935Z,3.80
2019-05-28T03:45:14.662Z,3.80
2019-05-28T03:47:46.115Z,4.70
2019-05-28T03:50:18.383Z,4.30
2019-05-28T03:52:50.706Z,4.60
2019-05-28T03:55:23.572Z,4.30
2019-05-28T03:57:57.099Z,4.70
2019-05-28T04:00:28.474Z,4.30
2019-05-28T04:03:00.744Z,3.97
2019-05-28T04:05:33.551Z,4.40
2019-05-28T04:08:05.447Z,4.40
2019-05-28T04:10:40.855Z,4.37
2019-05-28T04:13:14.927Z,5.20
2019-05-28T04:15:47.436Z,4.40
2019-05-28T04:18:21.154Z,5.27
2019-05-28T04:20:53.372Z,5.33
2019-05-28T04:23:26.058Z,4.87
2019-05-28T04:25:59.606Z,5.50
2019-05-28T04:28:32.798Z,5.20
2019-05-28T04:31:04.234Z,4.57
2019-05-28T04:33:36.495Z,4.60
2019-05-28T04:36:10.722Z,4.47
2019-05-28T04:38:42.585Z,4.77
2019-05-28T04:41:15.399Z,4.40
2019-05-28T04:43:49.444Z,4.73
2019-05-28T04:46:21.328Z,4.83
2019-05-28T04:48:54.048Z,4.70
2019-05-28T04:51:25.577Z,5.17
2019-05-28T04:53:59.983Z,4.50
2019-05-28T04:56:32.361Z,4.93
2019-05-28T04:59:04.735Z,4.97
2019-05-28T05:01:36.481Z,4.50
2019-05-28T05:04:09.710Z,5.07
2019-05-28T05:06:43.242Z,5.73
2019-05-28T05:09:17.721Z,5.87
2019-05-28T05:11:50.018Z,5.90
2019-05-28T05:14:23.054Z,5.77
2019-05-28T05:16:56.263Z,5.33
2019-05-28T05:19:28.562Z,5.87
2019-05-28T05:22:02.076Z,5.13
2019-05-28T05:24:37.454Z,5.30
2019-05-28T05:27:11.271Z,4.93
2019-05-28T05:29:43.142Z,4.93
2019-05-28T05:32:15.450Z,4.50
2019-05-28T05:34:49.382Z,4.70
2019-05-28T05:37:22.168Z,4.10
2019-05-28T05:39:56.772Z,4.80
2019-05-28T05:42:29.177Z,4.73
2019-05-28T05:45:00.597Z,4.70
2019-05-28T05:47:33.400Z,4.90
2019-05-28T05:50:07.399Z,5.10
2019-05-28T05:52:39.859Z,4.47
2019-05-28T05:55:12.856Z,4.80
2019-05-28T05:57:45.665Z,5.03
2019-05-28T06:00:19.598Z,4.97
2019-05-28T06:02:52.467Z,4.90
2019-05-28T06:05:27.049Z,7.37
2019-05-28T06:07:59.561Z,8.10
2019-05-28T06:10:35.396Z,5.30
2019-05-28T06:13:07.174Z,5.27
2019-05-28T06:15:40.770Z,5.37
2019-05-28T06:18:12.470Z,5.70
2019-05-28T06:20:48.108Z,5.50
2019-05-28T06:23:20.685Z,6.50
2019-05-28T06:25:52.358Z,5.97
2019-05-28T06:28:24.388Z,6.53
2019-05-28T06:30:55.937Z,7.33
2019-05-28T06:33:28.669Z,7.97
2019-05-28T06:36:00.519Z,8.10
2019-05-28T06:38:34.598Z,7.73
2019-05-28T06:41:06.522Z,8.37
2019-05-28T06:43:38.128Z,7.50
2019-05-28T06:46:12.494Z,7.97
2019-05-28T06:48:46.511Z,7.17
2019-05-28T06:51:19.540Z,8.13
2019-05-28T06:53:51.414Z,7.10
2019-05-28T06:56:25.536Z,8.13
2019-05-28T06:58:58.325Z,6.93
2019-05-28T07:01:31.118Z,6.47
2019-05-28T07:04:13.202Z,6.87
2019-05-28T07:06:38.829Z,5.90
2019-05-28T07:09:11.600Z,7.63
2019-05-28T07:11:47.430Z,7.67
2019-05-28T07:14:21.333Z,8.40
2019-05-28T07:16:54.057Z,7.60
2019-05-28T07:19:26.307Z,8.13
2019-05-28T07:21:57.545Z,8.93
2019-05-28T07:24:31.511Z,9.20
2019-05-28T07:27:03.409Z,9.50
2019-05-28T07:29:35.329Z,8.17
2019-05-28T07:32:08.136Z,8.97
2019-05-28T07:34:40.015Z,10.27
2019-05-28T07:37:12.739Z,9.20
2019-05-28T07:39:46.466Z,9.10
2019-05-28T07:42:31.800Z,11.47
2019-05-28T07:44:52.431Z,10.90
2019-05-28T07:47:25.815Z,11.47
2019-05-28T07:49:58.430Z,11.43
2019-05-28T07:52:32.969Z,11.27
2019-05-28T07:55:07.152Z,10.37
2019-05-28T07:57:42.763Z,11.00
2019-05-28T08:00:16.354Z,10.73
2019-05-28T08:02:48.314Z,12.40
2019-05-28T08:05:21.030Z,11.60
2019-05-28T08:07:52.458Z,11.27
2019-05-28T08:10:28.669Z,10.90
2019-05-28T08:12:58.292Z,11.87
2019-05-28T08:15:31.097Z,12.20
2019-05-28T08:18:03.932Z,13.87
2019-05-28T08:20:35.478Z,13.13
2019-05-28T08:23:07.890Z,12.57
2019-05-28T08:25:47.489Z,11.77
2019-05-28T08:28:19.964Z,13.40
2019-05-28T08:30:47.738Z,13.33
2019-05-28T08:33:20.536Z,13.77
2019-05-28T08:35:52.422Z,13.60
2019-05-28T08:38:25.316Z,13.77
2019-05-28T08:40:59.002Z,15.43
2019-05-28T08:43:35.121Z,15.87
2019-05-28T08:46:09.483Z,16.00
2019-05-28T08:48:44.718Z,17.80
2019-05-28T08:51:17.097Z,14.67
2019-05-28T08:53:48.289Z,15.70
2019-05-28T08:56:20.658Z,17.23
2019-05-28T08:58:53.526Z,17.63
2019-05-28T09:01:25.744Z,18.93
2019-05-28T09:03:59.709Z,18.40
2019-05-28T09:06:33.250Z,19.70
2019-05-28T09:09:07.214Z,19.70
2019-05-28T09:11:39.859Z,19.43
2019-05-28T09:14:13.463Z,22.40
2019-05-28T09:16:47.500Z,24.10
2019-05-28T09:19:20.614Z,24.80
2019-05-28T09:21:53.431Z,18.83
2019-05-28T09:24:27.845Z,15.40
2019-05-28T09:26:59.806Z,18.33
2019-05-28T09:29:31.133Z,17.60
2019-05-28T09:32:04.150Z,16.73
2019-05-28T09:34:38.833Z,14.80
2019-05-28T09:37:10.673Z,15.40
2019-05-28T09:39:42.554Z,15.00
2019-05-28T09:42:17.420Z,11.23
2019-05-28T09:44:49.933Z,12.00
2019-05-28T09:47:23.344Z,11.50
2019-05-28T09:49:56.386Z,11.53
2019-05-28T09:52:28.570Z,11.23
2019-05-28T09:55:01.631Z,11.30
2019-05-28T09:57:46.335Z,9.97
2019-05-28T10:00:11.070Z,11.20
2019-05-28T10:02:43.924Z,11.00
2019-05-28T10:05:17.194Z,10.13
2019-05-28T10:07:51.771Z,9.73
2019-05-28T10:10:23.654Z,10.97
2019-05-28T10:12:55.547Z,11.10
2019-05-28T10:15:27.607Z,11.77
2019-05-28T10:18:01.023Z,11.93
2019-05-28T10:20:37.565Z,10.47
2019-05-28T10:23:08.430Z,9.93
2019-05-28T10:25:39.977Z,10.10
2019-05-28T10:28:15.151Z,9.20
2019-05-28T10:30:47.478Z,10.83
2019-05-28T10:33:21.246Z,9.97
2019-05-28T10:35:54.958Z,8.13
2019-05-28T10:38:26.638Z,7.93
2019-05-28T10:40:58.390Z,9.80
2019-05-28T10:43:32.286Z,10.27
2019-05-28T10:46:05.201Z,12.63
2019-05-28T10:48:37.262Z,12.60
2019-05-28T10:51:10.069Z,13.23
2019-05-28T10:53:42.544Z,13.90
2019-05-28T10:56:13.990Z,14.00
2019-05-28T10:58:46.267Z,14.57
2019-05-28T11:01:19.085Z,13.07
2019-05-28T11:03:51.986Z,14.17
2019-05-28T11:06:25.697Z,15.97
2019-05-28T11:08:57.507Z,14.93
2019-05-28T11:11:29.078Z,14.97
2019-05-28T11:14:03.407Z,14.93
2019-05-28T11:16:35.829Z,13.90
2019-05-28T11:19:07.282Z,12.93
2019-05-28T11:21:39.670Z,12.67
2019-05-28T11:24:12.816Z,15.03
2019-05-28T11:26:48.557Z,12.77
2019-05-28T11:29:20.099Z,10.50
2019-05-28T11:31:52.518Z,9.60
2019-05-28T11:34:25.161Z,10.63
2019-05-28T11:37:08.740Z,9.30
2019-05-28T11:39:32.704Z,8.73
2019-05-28T11:42:06.750Z,9.00
2019-05-28T11:44:38.095Z,8.80
2019-05-28T11:47:08.873Z,7.60
2019-05-28T11:49:39.872Z,8.30
2019-05-28T11:52:11.686Z,7.20
2019-05-28T11:54:44.418Z,7.10
2019-05-28T11:57:18.054Z,6.43
2019-05-28T11:59:50.734Z,5.97
2019-05-28T12:02:22.609Z,5.57
2019-05-28T12:04:56.909Z,6.33
2019-05-28T12:07:28.886Z,6.27
2019-05-28T12:10:01.560Z,6.57
2019-05-28T12:12:34.981Z,6.10
2019-05-28T12:15:09.931Z,5.63
2019-05-28T12:17:44.815Z,5.27
2019-05-28T12:20:15.908Z,5.20
2019-05-28T12:23:08.879Z,5.03
2019-05-28T12:25:26.199Z,4.53
2019-05-28T12:27:58.962Z,3.50
2019-05-28T12:30:31.118Z,2.80
2019-05-28T12:33:03.955Z,2.70
2019-05-28T12:35:36.633Z,2.53
2019-05-28T12:38:08.507Z,2.67
2019-05-28T12:40:48.044Z,3.17
2019-05-28T12:43:16.263Z,3.63
2019-05-28T12:45:50.149Z,3.77
2019-05-28T12:48:22.694Z,3.53
2019-05-28T12:50:57.062Z,3.83
2019-05-28T12:53:48.328Z,3.43
2019-05-28T12:56:01.641Z,2.93
2019-05-28T12:58:42.296Z,2.70
2019-05-28T13:01:10.139Z,2.13
2019-05-28T13:03:43.009Z,2.13
2019-05-28T13:06:14.878Z,2.23
2019-05-28T13:08:48.613Z,2.40
2019-05-28T13:11:21.290Z,2.50
2019-05-28T13:13:52.634Z,2.60
2019-05-28T13:16:25.679Z,2.97
2019-05-28T13:19:00.296Z,3.67
2019-05-28T13:21:31.890Z,3.93
2019-05-28T13:24:06.403Z,3.20
2019-05-28T13:26:38.854Z,3.93
2019-05-28T13:29:11.475Z,3.70
2019-05-28T13:31:44.250Z,3.63
2019-05-28T13:34:16.961Z,3.00
2019-05-28T13:36:48.806Z,3.27
2019-05-28T13:39:21.231Z,3.63
2019-05-28T13:41:56.043Z,4.63
2019-05-28T13:44:27.897Z,6.27
2019-05-28T13:46:59.756Z,6.60
2019-05-28T13:49:32.545Z,6.03
2019-05-28T13:52:11.933Z,5.23
2019-05-28T13:54:39.852Z,5.63
2019-05-28T13:57:11.617Z,6.37
2019-05-28T13:59:43.484Z,7.60
2019-05-28T14:02:15.975Z,7.03
2019-05-28T14:04:48.398Z,7.77
2019-05-28T14:07:20.791Z,6.03
2019-05-28T14:09:55.917Z,7.03
2019-05-28T14:12:29.958Z,6.40
2019-05-28T14:15:01.390Z,6.60
2019-05-28T14:17:33.125Z,5.33
2019-05-28T14:20:07.755Z,5.07
2019-05-28T14:22:39.699Z,6.73
2019-05-28T14:25:14.076Z,6.33
2019-05-28T14:27:46.895Z,6.77
2019-05-28T14:30:20.590Z,7.23
2019-05-28T14:32:54.821Z,8.30
2019-05-28T14:35:28.049Z,8.20
2019-05-28T14:38:01.304Z,8.40
2019-05-28T14:40:34.665Z,8.23
2019-05-28T14:43:07.682Z,8.73
2019-05-28T14:45:41.556Z,8.90
2019-05-28T14:48:14.376Z,9.90
2019-05-28T14:50:46.562Z,7.80
2019-05-28T14:53:18.216Z,7.47
2019-05-28T14:55:49.672Z,6.37
2019-05-28T14:58:21.510Z,7.53
2019-05-28T15:00:54.012Z,5.90
2019-05-28T15:03:26.325Z,6.20
2019-05-28T15:05:58.080Z,5.17
2019-05-28T15:08:29.514Z,4.37
2019-05-28T15:11:02.343Z,4.60
2019-05-28T15:13:34.661Z,6.10
2019-05-28T15:16:08.136Z,5.80
2019-05-28T15:18:40.482Z,5.07
2019-05-28T15:21:12.927Z,4.20
2019-05-28T15:23:45.554Z,4.30
2019-05-28T15:26:17.075Z,4.50
2019-05-28T15:28:48.842Z,4.30
2019-05-28T15:31:23.430Z,4.47
2019-05-28T15:33:56.842Z,4.20
2019-05-28T15:36:28.726Z,4.03
2019-05-28T15:39:00.597Z,3.90
2019-05-28T15:41:32.162Z,3.80
2019-05-28T15:44:03.508Z,3.90
2019-05-28T15:46:35.887Z,3.50
2019-05-28T15:49:07.346Z,4.30
2019-05-28T15:51:40.134Z,4.07
2019-05-28T15:54:12.943Z,4.37
2019-05-28T15:56:44.419Z,4.23
2019-05-28T15:59:17.048Z,4.23
2019-05-28T16:01:48.865Z,4.00
2019-05-28T16:04:20.333Z,4.40
2019-05-28T16:06:53.041Z,3.93
2019-05-28T16:09:24.874Z,4.20
2019-05-28T16:11:57.709Z,4.53
2019-05-28T16:14:30.221Z,4.27
2019-05-28T16:17:02.510Z,4.37
2019-05-28T16:19:33.902Z,4.50
2019-05-28T16:22:04.786Z,4.33
2019-05-28T16:24:38.173Z,4.13
2019-05-28T16:27:10.983Z,3.93
2019-05-28T16:29:42.458Z,4.93
2019-05-28T16:32:13.406Z,4.40
2019-05-28T16:34:46.101Z,3.80
2019-05-28T16:37:17.745Z,4.27
2019-05-28T16:39:50.250Z,4.03
2019-05-28T16:42:22.574Z,4.63
2019-05-28T16:44:56.926Z,4.10
2019-05-28T16:47:28.665Z,3.80
2019-05-28T16:50:00.452Z,4.20
2019-05-28T16:52:32.805Z,3.93
2019-05-28T16:55:06.382Z,4.77
2019-05-28T16:57:38.788Z,4.20
2019-05-28T17:00:10.956Z,4.13
2019-05-28T17:02:43.346Z,4.77
2019-05-28T17:05:15.501Z,4.80
2019-05-28T17:07:47.987Z,4.73
2019-05-28T17:10:32.246Z,4.37
2019-05-28T17:12:56.060Z,4.37
2019-05-28T17:15:27.569Z,4.57
2019-05-28T17:17:58.978Z,4.40
2019-05-28T17:20:30.672Z,4.10
2019-05-28T17:23:03.145Z,4.10
2019-05-28T17:25:37.111Z,4.40
2019-05-28T17:28:09.649Z,4.50
2019-05-28T17:30:42.008Z,4.67
2019-05-28T17:33:13.838Z,4.40
2019-05-28T17:35:50.698Z,4.70
2019-05-28T17:38:23.038Z,4.77
2019-05-28T17:40:55.717Z,4.63
2019-05-28T17:43:28.465Z,4.50
2019-05-28T17:46:00.556Z,4.73
2019-05-28T17:48:33.025Z,4.60
2019-05-28T17:51:07.069Z,4.60
2019-05-28T17:53:39.578Z,5.37
2019-05-28T17:56:11.793Z,4.70
2019-05-28T17:58:44.486Z,4.93
2019-05-28T18:01:17.300Z,4.90
2019-05-28T18:03:48.859Z,4.80
2019-05-28T18:06:20.287Z,4.80
2019-05-28T18:09:03.139Z,4.90
2019-05-28T18:11:37.310Z,4.67
2019-05-28T18:14:23.635Z,4.90
2019-05-28T18:16:57.302Z,4.70
2019-05-28T18:19:30.033Z,5.13
2019-05-28T18:22:01.579Z,5.33
2019-05-28T18:24:35.613Z,4.93
2019-05-28T18:27:08.460Z,5.40
2019-05-28T18:29:41.172Z,5.70
2019-05-28T18:32:14.282Z,5.70
2019-05-28T18:34:47.727Z,5.30
2019-05-28T18:37:20.422Z,4.87
2019-05-28T18:39:55.010Z,5.93
2019-05-28T18:42:26.545Z,4.90
2019-05-28T18:45:00.112Z,5.40
2019-05-28T18:47:31.534Z,5.80
2019-05-28T18:50:03.742Z,5.23
2019-05-28T18:52:37.206Z,5.43
2019-05-28T18:55:09.770Z,5.40
2019-05-28T18:57:41.710Z,5.87
2019-05-28T19:00:15.721Z,5.77
2019-05-28T19:02:47.238Z,5.80
2019-05-28T19:05:20.126Z,5.70
2019-05-28T19:07:54.629Z,5.77
2019-05-28T19:10:26.179Z,6.53
2019-05-28T19:12:58.867Z,6.63
2019-05-28T19:15:31.369Z,5.57
2019-05-28T19:18:02.855Z,6.80
2019-05-28T19:20:34.583Z,6.33
2019-05-28T19:23:08.157Z,5.70
2019-05-28T19:25:41.593Z,5.17
2019-05-28T19:28:13.873Z,5.20
2019-05-28T19:30:50.353Z,5.30
2019-05-28T19:33:23.985Z,4.90
2019-05-28T19:35:59.534Z,5.30
2019-05-28T19:38:45.043Z,5.53
2019-05-28T19:41:08.347Z,4.40
2019-05-28T19:43:42.444Z,4.83
2019-05-28T19:46:14.154Z,4.37
2019-05-28T19:48:48.754Z,5.07
2019-05-28T19:51:21.446Z,4.93
2019-05-28T19:53:55.715Z,4.83
2019-05-28T19:56:27.175Z,4.77
2019-05-28T19:58:59.882Z,4.47
2019-05-28T20:01:31.436Z,4.80
2019-05-28T20:04:04.049Z,5.10
2019-05-28T20:06:36.338Z,4.93
2019-05-28T20:09:09.321Z,5.33
2019-05-28T20:11:42.123Z,5.13
2019-05-28T20:14:16.178Z,5.53
2019-05-28T20:16:47.566Z,5.57
2019-05-28T20:19:21.700Z,4.33
2019-05-28T20:21:56.864Z,5.53
2019-05-28T20:24:29.605Z,5.17
2019-05-28T20:27:01.500Z,4.90
2019-05-28T20:29:33.985Z,5.00
2019-05-28T20:32:05.349Z,5.17
2019-05-28T20:34:37.190Z,5.57
2019-05-28T20:37:11.826Z,5.03
2019-05-28T20:39:43.393Z,4.60
2019-05-28T20:42:26.856Z,5.03
2019-05-28T20:44:49.171Z,4.67
2019-05-28T20:47:22.317Z,4.30
2019-05-28T20:49:55.110Z,3.90
2019-05-28T20:52:27.682Z,4.50
2019-05-28T20:54:59.253Z,4.57
2019-05-28T20:57:32.046Z,3.90
2019-05-28T21:00:06.410Z,3.77
2019-05-28T21:02:40.841Z,3.47
2019-05-28T21:05:14.645Z,3.20
2019-05-28T21:07:49.977Z,2.93
2019-05-28T21:10:22.789Z,3.37
2019-05-28T21:12:57.022Z,3.57
2019-05-28T21:15:29.590Z,3.40
2019-05-28T21:18:01.350Z,3.30
2019-05-28T21:20:34.094Z,2.97
2019-05-28T21:23:06.837Z,3.03
2019-05-28T21:25:38.378Z,3.10
2019-05-28T21:28:11.489Z,2.87
2019-05-28T21:30:45.793Z,3.33
2019-05-28T21:33:17.226Z,3.23
2019-05-28T21:35:48.465Z,3.17
2019-05-28T21:38:21.278Z,3.00
2019-05-28T21:40:55.548Z,2.53
2019-05-28T21:43:27.386Z,2.97
2019-05-28T21:46:00.448Z,2.80
2019-05-28T21:48:33.346Z,2.47
2019-05-28T21:51:06.021Z,3.30
2019-05-28T21:53:37.593Z,3.27
2019-05-28T21:56:10.341Z,3.07
2019-05-28T21:58:42.260Z,2.87
2019-05-28T22:01:18.101Z,3.17
2019-05-28T22:03:50.993Z,2.70
2019-05-28T22:06:23.738Z,3.40
2019-05-28T22:08:57.868Z,2.60
2019-05-28T22:11:30.499Z,2.70
2019-05-28T22:14:02.267Z,2.87
2019-05-28T22:16:34.536Z,3.00
2019-05-28T22:19:06.400Z,3.30
2019-05-28T22:21:38.367Z,2.90
2019-05-28T22:24:11.598Z,3.07
2019-05-28T22:26:43.457Z,2.93
2019-05-28T22:29:16.187Z,2.90
2019-05-28T22:31:48.891Z,2.70
2019-05-28T22:34:21.365Z,3.10
2019-05-28T22:36:53.674Z,3.40
2019-05-28T22:39:25.408Z,3.47
2019-05-28T22:41:59.585Z,3.60
2019-05-28T22:44:32.213Z,3.00
2019-05-28T22:47:05.258Z,3.63
2019-05-28T22:49:38.102Z,3.80
2019-05-28T22:52:10.650Z,3.60
2019-05-28T22:54:43.436Z,3.83
2019-05-28T22:57:16.941Z,3.60
2019-05-28T22:59:50.418Z,4.10
2019-05-28T23:02:23.074Z,4.17
2019-05-28T23:04:56.257Z,3.90
2019-05-28T23:07:29.700Z,4.30
2019-05-28T23:10:03.550Z,3.73
2019-05-28T23:12:35.118Z,3.23
2019-05-28T23:15:08.291Z,3.90
2019-05-28T23:17:40.566Z,3.97
2019-05-28T23:20:13.783Z,3.10
2019-05-28T23:22:45.659Z,3.60
2019-05-28T23:25:18.088Z,3.80
2019-05-28T23:27:51.704Z,3.93
2019-05-28T23:30:25.635Z,3.50
2019-05-28T23:32:58.075Z,3.60
2019-05-28T23:35:30.467Z,3.03
2019-05-28T23:38:03.127Z,2.93
2019-05-28T23:40:36.170Z,3.40
2019-05-28T23:43:09.520Z,2.97
2019-05-28T23:45:42.646Z,3.60
2019-05-28T23:48:18.303Z,3.67
2019-05-28T23:50:50.401Z,3.50
2019-05-28T23:53:22.285Z,3.60
2019-05-28T23:55:54.778Z,3.23
2019-05-28T23:58:27.511Z,2.70
